sensor_id;sensor_type;location;lat;lon;timestamp;P1;durP1;ratioP1;P2;durP2;ratioP2
3004;SDS011;1512;51.486;6.610;2023-06-26T00:00:54;7.60;;;6.90;;
3004;SDS011;1512;51.486;6.610;2023-06-26T00:05:03;9.43;;;7.53;;
3004;SDS011;1512;51.486;6.610;2023-06-26T00:09:13;10.30;;;9.30;;
3004;SDS011;1512;51.486;6.610;2023-06-26T00:13:29;12.00;;;9.17;;
3004;SDS011;1512;51.486;6.610;2023-06-26T00:17:38;9.60;;;7.57;;
3004;SDS011;1512;51.486;6.610;2023-06-26T00:21:47;12.20;;;7.13;;
3004;SDS011;1512;51.486;6.610;2023-06-26T00:25:55;8.70;;;7.80;;
3004;SDS011;1512;51.486;6.610;2023-06-26T00:30:13;7.73;;;6.73;;
3004;SDS011;1512;51.486;6.610;2023-06-26T00:34:22;8.90;;;8.00;;
3004;SDS011;1512;51.486;6.610;2023-06-26T00:42:58;9.30;;;8.40;;
3004;SDS011;1512;51.486;6.610;2023-06-26T00:47:07;9.30;;;8.40;;
3004;SDS011;1512;51.486;6.610;2023-06-26T00:51:17;10.93;;;7.80;;
3004;SDS011;1512;51.486;6.610;2023-06-26T00:59:47;8.80;;;7.90;;
3004;SDS011;1512;51.486;6.610;2023-06-26T01:03:57;8.80;;;7.90;;
3004;SDS011;1512;51.486;6.610;2023-06-26T01:08:05;8.20;;;7.40;;
3004;SDS011;1512;51.486;6.610;2023-06-26T01:12:15;11.43;;;9.20;;
3004;SDS011;1512;51.486;6.610;2023-06-26T01:20:54;10.10;;;8.20;;
3004;SDS011;1512;51.486;6.610;2023-06-26T01:25:20;8.47;;;7.67;;
3004;SDS011;1512;51.486;6.610;2023-06-26T01:29:32;9.30;;;8.10;;
3004;SDS011;1512;51.486;6.610;2023-06-26T01:33:42;9.05;;;8.18;;
3004;SDS011;1512;51.486;6.610;2023-06-26T01:37:51;9.70;;;7.77;;
3004;SDS011;1512;51.486;6.610;2023-06-26T01:41:59;8.30;;;7.50;;
3004;SDS011;1512;51.486;6.610;2023-06-26T01:46:16;9.17;;;8.17;;
3004;SDS011;1512;51.486;6.610;2023-06-26T01:50:45;8.50;;;7.60;;
3004;SDS011;1512;51.486;6.610;2023-06-26T01:59:32;13.67;;;9.13;;
3004;SDS011;1512;51.486;6.610;2023-06-26T02:03:42;10.67;;;9.07;;
3004;SDS011;1512;51.486;6.610;2023-06-26T02:07:51;10.40;;;9.15;;
3004;SDS011;1512;51.486;6.610;2023-06-26T02:11:59;9.87;;;8.43;;
3004;SDS011;1512;51.486;6.610;2023-06-26T02:16:08;9.53;;;8.07;;
3004;SDS011;1512;51.486;6.610;2023-06-26T02:20:17;8.93;;;8.03;;
3004;SDS011;1512;51.486;6.610;2023-06-26T02:28:53;10.60;;;8.70;;
3004;SDS011;1512;51.486;6.610;2023-06-26T02:33:02;10.13;;;8.90;;
3004;SDS011;1512;51.486;6.610;2023-06-26T02:37:11;10.70;;;8.73;;
3004;SDS011;1512;51.486;6.610;2023-06-26T02:45:48;10.47;;;9.30;;
3004;SDS011;1512;51.486;6.610;2023-06-26T02:49:56;10.40;;;8.47;;
3004;SDS011;1512;51.486;6.610;2023-06-26T02:58:26;8.77;;;7.90;;
3004;SDS011;1512;51.486;6.610;2023-06-26T03:02:35;10.13;;;8.87;;
3004;SDS011;1512;51.486;6.610;2023-06-26T03:06:43;14.60;;;9.27;;
3004;SDS011;1512;51.486;6.610;2023-06-26T03:10:52;8.53;;;7.67;;
3004;SDS011;1512;51.486;6.610;2023-06-26T03:15:01;8.70;;;7.80;;
3004;SDS011;1512;51.486;6.610;2023-06-26T03:19:09;9.80;;;8.80;;
3004;SDS011;1512;51.486;6.610;2023-06-26T03:23:18;9.17;;;8.33;;
3004;SDS011;1512;51.486;6.610;2023-06-26T03:27:27;13.77;;;8.67;;
3004;SDS011;1512;51.486;6.610;2023-06-26T03:31:36;7.57;;;6.87;;
3004;SDS011;1512;51.486;6.610;2023-06-26T03:35:44;7.90;;;7.10;;
3004;SDS011;1512;51.486;6.610;2023-06-26T03:39:53;8.57;;;7.73;;
3004;SDS011;1512;51.486;6.610;2023-06-26T03:44:02;8.83;;;6.70;;
3004;SDS011;1512;51.486;6.610;2023-06-26T03:48:11;7.93;;;7.13;;
3004;SDS011;1512;51.486;6.610;2023-06-26T03:52:19;15.50;;;8.97;;
3004;SDS011;1512;51.486;6.610;2023-06-26T03:56:28;9.20;;;7.40;;
3004;SDS011;1512;51.486;6.610;2023-06-26T04:00:37;9.13;;;7.23;;
3004;SDS011;1512;51.486;6.610;2023-06-26T04:04:45;10.17;;;8.03;;
3004;SDS011;1512;51.486;6.610;2023-06-26T04:08:54;8.30;;;7.40;;
3004;SDS011;1512;51.486;6.610;2023-06-26T04:13:03;8.47;;;6.60;;
3004;SDS011;1512;51.486;6.610;2023-06-26T04:17:11;8.23;;;7.23;;
3004;SDS011;1512;51.486;6.610;2023-06-26T04:21:20;8.03;;;6.93;;
3004;SDS011;1512;51.486;6.610;2023-06-26T04:25:30;6.70;;;5.93;;
3004;SDS011;1512;51.486;6.610;2023-06-26T04:29:41;8.60;;;5.97;;
3004;SDS011;1512;51.486;6.610;2023-06-26T04:38:18;7.37;;;5.07;;
3004;SDS011;1512;51.486;6.610;2023-06-26T04:42:28;7.33;;;5.50;;
3004;SDS011;1512;51.486;6.610;2023-06-26T04:46:37;6.10;;;5.50;;
3004;SDS011;1512;51.486;6.610;2023-06-26T04:50:50;5.67;;;4.97;;
3004;SDS011;1512;51.486;6.610;2023-06-26T04:55:02;5.53;;;5.00;;
3004;SDS011;1512;51.486;6.610;2023-06-26T04:59:11;7.43;;;5.90;;
3004;SDS011;1512;51.486;6.610;2023-06-26T05:03:21;15.07;;;6.87;;
3004;SDS011;1512;51.486;6.610;2023-06-26T05:12:00;6.40;;;5.70;;
3004;SDS011;1512;51.486;6.610;2023-06-26T05:20:38;7.23;;;6.00;;
3004;SDS011;1512;51.486;6.610;2023-06-26T05:24:47;10.03;;;6.10;;
3004;SDS011;1512;51.486;6.610;2023-06-26T05:28:57;11.03;;;6.80;;
3004;SDS011;1512;51.486;6.610;2023-06-26T05:33:06;7.87;;;5.30;;
3004;SDS011;1512;51.486;6.610;2023-06-26T05:37:20;10.37;;;6.37;;
3004;SDS011;1512;51.486;6.610;2023-06-26T05:41:30;5.87;;;4.70;;
3004;SDS011;1512;51.486;6.610;2023-06-26T05:45:39;9.50;;;6.17;;
3004;SDS011;1512;51.486;6.610;2023-06-26T05:49:48;9.27;;;5.37;;
3004;SDS011;1512;51.486;6.610;2023-06-26T05:53:57;6.73;;;5.60;;
3004;SDS011;1512;51.486;6.610;2023-06-26T05:58:05;7.60;;;5.33;;
3004;SDS011;1512;51.486;6.610;2023-06-26T06:02:14;8.07;;;5.33;;
3004;SDS011;1512;51.486;6.610;2023-06-26T06:06:23;10.00;;;6.10;;
3004;SDS011;1512;51.486;6.610;2023-06-26T06:14:59;11.60;;;5.97;;
3004;SDS011;1512;51.486;6.610;2023-06-26T06:19:08;8.57;;;5.90;;
3004;SDS011;1512;51.486;6.610;2023-06-26T06:23:18;7.33;;;5.67;;
3004;SDS011;1512;51.486;6.610;2023-06-26T06:27:27;8.43;;;5.43;;
3004;SDS011;1512;51.486;6.610;2023-06-26T06:31:36;7.33;;;6.58;;
3004;SDS011;1512;51.486;6.610;2023-06-26T06:35:44;8.40;;;5.73;;
3004;SDS011;1512;51.486;6.610;2023-06-26T06:44:21;10.90;;;6.40;;
3004;SDS011;1512;51.486;6.610;2023-06-26T06:48:32;10.60;;;5.30;;
3004;SDS011;1512;51.486;6.610;2023-06-26T06:52:42;9.90;;;6.03;;
3004;SDS011;1512;51.486;6.610;2023-06-26T07:01:19;8.67;;;5.67;;
3004;SDS011;1512;51.486;6.610;2023-06-26T07:05:27;9.47;;;6.13;;
3004;SDS011;1512;51.486;6.610;2023-06-26T07:09:36;10.40;;;6.20;;
3004;SDS011;1512;51.486;6.610;2023-06-26T07:13:45;12.00;;;7.00;;
3004;SDS011;1512;51.486;6.610;2023-06-26T07:17:54;8.10;;;5.63;;
3004;SDS011;1512;51.486;6.610;2023-06-26T07:22:03;13.03;;;7.00;;
3004;SDS011;1512;51.486;6.610;2023-06-26T07:26:14;9.00;;;6.60;;
3004;SDS011;1512;51.486;6.610;2023-06-26T07:30:23;7.30;;;5.67;;
3004;SDS011;1512;51.486;6.610;2023-06-26T07:34:31;6.40;;;5.57;;
3004;SDS011;1512;51.486;6.610;2023-06-26T07:47:37;10.03;;;5.13;;
3004;SDS011;1512;51.486;6.610;2023-06-26T07:51:46;9.80;;;5.67;;
3004;SDS011;1512;51.486;6.610;2023-06-26T08:00:24;10.13;;;5.70;;
3004;SDS011;1512;51.486;6.610;2023-06-26T08:09:01;9.00;;;5.20;;
3004;SDS011;1512;51.486;6.610;2023-06-26T08:13:11;9.50;;;4.90;;
3004;SDS011;1512;51.486;6.610;2023-06-26T08:21:41;10.33;;;5.97;;
3004;SDS011;1512;51.486;6.610;2023-06-26T08:30:19;15.73;;;6.50;;
3004;SDS011;1512;51.486;6.610;2023-06-26T08:34:28;7.10;;;5.00;;
3004;SDS011;1512;51.486;6.610;2023-06-26T08:38:36;5.13;;;4.30;;
3004;SDS011;1512;51.486;6.610;2023-06-26T08:42:47;9.13;;;5.40;;
3004;SDS011;1512;51.486;6.610;2023-06-26T08:46:59;7.87;;;5.00;;
3004;SDS011;1512;51.486;6.610;2023-06-26T08:55:37;6.67;;;4.13;;
3004;SDS011;1512;51.486;6.610;2023-06-26T08:59:48;8.73;;;4.17;;
3004;SDS011;1512;51.486;6.610;2023-06-26T09:03:57;6.73;;;5.60;;
3004;SDS011;1512;51.486;6.610;2023-06-26T09:08:06;7.03;;;5.25;;
3004;SDS011;1512;51.486;6.610;2023-06-26T09:12:15;8.13;;;4.93;;
3004;SDS011;1512;51.486;6.610;2023-06-26T09:16:24;6.83;;;4.77;;
3004;SDS011;1512;51.486;6.610;2023-06-26T09:20:34;7.43;;;5.00;;
3004;SDS011;1512;51.486;6.610;2023-06-26T09:24:43;5.60;;;4.23;;
3004;SDS011;1512;51.486;6.610;2023-06-26T09:28:53;7.90;;;4.60;;
3004;SDS011;1512;51.486;6.610;2023-06-26T09:33:15;10.10;;;5.23;;
3004;SDS011;1512;51.486;6.610;2023-06-26T09:37:25;7.77;;;4.67;;
3004;SDS011;1512;51.486;6.610;2023-06-26T09:41:35;9.27;;;5.03;;
3004;SDS011;1512;51.486;6.610;2023-06-26T09:45:45;5.10;;;4.50;;
3004;SDS011;1512;51.486;6.610;2023-06-26T09:49:54;10.80;;;5.00;;
3004;SDS011;1512;51.486;6.610;2023-06-26T09:54:03;10.20;;;5.03;;
3004;SDS011;1512;51.486;6.610;2023-06-26T10:02:40;8.10;;;4.40;;
3004;SDS011;1512;51.486;6.610;2023-06-26T10:06:49;4.77;;;4.20;;
3004;SDS011;1512;51.486;6.610;2023-06-26T10:11:01;5.70;;;4.07;;
3004;SDS011;1512;51.486;6.610;2023-06-26T10:15:09;6.83;;;4.80;;
3004;SDS011;1512;51.486;6.610;2023-06-26T10:19:21;4.87;;;4.37;;
3004;SDS011;1512;51.486;6.610;2023-06-26T10:23:32;9.97;;;4.20;;
3004;SDS011;1512;51.486;6.610;2023-06-26T10:27:43;3.93;;;3.33;;
3004;SDS011;1512;51.486;6.610;2023-06-26T10:31:55;3.47;;;3.07;;
3004;SDS011;1512;51.486;6.610;2023-06-26T10:36:14;3.43;;;3.13;;
3004;SDS011;1512;51.486;6.610;2023-06-26T10:40:25;3.90;;;2.80;;
3004;SDS011;1512;51.486;6.610;2023-06-26T10:44:44;3.30;;;3.00;;
3004;SDS011;1512;51.486;6.610;2023-06-26T10:48:56;4.23;;;2.70;;
3004;SDS011;1512;51.486;6.610;2023-06-26T10:53:11;3.40;;;3.07;;
3004;SDS011;1512;51.486;6.610;2023-06-26T10:57:25;4.00;;;3.40;;
3004;SDS011;1512;51.486;6.610;2023-06-26T11:01:39;3.10;;;2.83;;
3004;SDS011;1512;51.486;6.610;2023-06-26T11:05:45;3.43;;;2.97;;
3004;SDS011;1512;51.486;6.610;2023-06-26T11:09:58;4.93;;;3.90;;
3004;SDS011;1512;51.486;6.610;2023-06-26T11:14:08;4.17;;;2.97;;
3004;SDS011;1512;51.486;6.610;2023-06-26T11:18:17;4.50;;;2.67;;
3004;SDS011;1512;51.486;6.610;2023-06-26T11:22:27;4.77;;;3.43;;
3004;SDS011;1512;51.486;6.610;2023-06-26T11:26:43;2.80;;;2.50;;
3004;SDS011;1512;51.486;6.610;2023-06-26T11:30:53;5.37;;;3.03;;
3004;SDS011;1512;51.486;6.610;2023-06-26T11:35:02;3.90;;;2.43;;
3004;SDS011;1512;51.486;6.610;2023-06-26T11:39:12;2.97;;;2.57;;
3004;SDS011;1512;51.486;6.610;2023-06-26T11:43:21;3.20;;;2.43;;
3004;SDS011;1512;51.486;6.610;2023-06-26T11:51:58;2.70;;;2.50;;
3004;SDS011;1512;51.486;6.610;2023-06-26T11:56:08;2.80;;;2.50;;
3004;SDS011;1512;51.486;6.610;2023-06-26T12:00:20;2.73;;;2.43;;
3004;SDS011;1512;51.486;6.610;2023-06-26T12:04:29;3.03;;;2.43;;
3004;SDS011;1512;51.486;6.610;2023-06-26T12:13:00;2.63;;;2.43;;
3004;SDS011;1512;51.486;6.610;2023-06-26T12:17:10;2.30;;;2.00;;
3004;SDS011;1512;51.486;6.610;2023-06-26T12:21:27;2.60;;;2.40;;
3004;SDS011;1512;51.486;6.610;2023-06-26T12:25:37;2.60;;;2.30;;
3004;SDS011;1512;51.486;6.610;2023-06-26T12:29:50;4.20;;;2.83;;
3004;SDS011;1512;51.486;6.610;2023-06-26T12:34:00;2.93;;;2.07;;
3004;SDS011;1512;51.486;6.610;2023-06-26T12:42:40;8.63;;;2.90;;
3004;SDS011;1512;51.486;6.610;2023-06-26T12:46:54;4.17;;;2.40;;
3004;SDS011;1512;51.486;6.610;2023-06-26T12:51:10;3.73;;;2.80;;
3004;SDS011;1512;51.486;6.610;2023-06-26T12:55:19;5.93;;;2.90;;
3004;SDS011;1512;51.486;6.610;2023-06-26T12:59:28;3.67;;;2.23;;
3004;SDS011;1512;51.486;6.610;2023-06-26T13:03:39;2.43;;;2.23;;
3004;SDS011;1512;51.486;6.610;2023-06-26T13:07:48;2.30;;;2.10;;
3004;SDS011;1512;51.486;6.610;2023-06-26T13:11:57;3.00;;;2.43;;
3004;SDS011;1512;51.486;6.610;2023-06-26T13:16:05;2.63;;;2.37;;
3004;SDS011;1512;51.486;6.610;2023-06-26T13:20:14;2.63;;;1.97;;
3004;SDS011;1512;51.486;6.610;2023-06-26T13:24:23;3.77;;;2.20;;
3004;SDS011;1512;51.486;6.610;2023-06-26T13:28:32;3.93;;;2.50;;
3004;SDS011;1512;51.486;6.610;2023-06-26T13:32:41;2.67;;;2.17;;
3004;SDS011;1512;51.486;6.610;2023-06-26T13:36:50;2.60;;;2.40;;
3004;SDS011;1512;51.486;6.610;2023-06-26T13:40:59;2.73;;;2.40;;
3004;SDS011;1512;51.486;6.610;2023-06-26T13:45:11;2.43;;;1.83;;
3004;SDS011;1512;51.486;6.610;2023-06-26T13:49:22;2.83;;;2.43;;
3004;SDS011;1512;51.486;6.610;2023-06-26T13:53:30;4.77;;;2.57;;
3004;SDS011;1512;51.486;6.610;2023-06-26T14:02:02;4.70;;;2.00;;
3004;SDS011;1512;51.486;6.610;2023-06-26T14:06:12;2.43;;;2.23;;
3004;SDS011;1512;51.486;6.610;2023-06-26T14:10:21;2.17;;;1.93;;
3004;SDS011;1512;51.486;6.610;2023-06-26T14:14:30;2.63;;;2.00;;
3004;SDS011;1512;51.486;6.610;2023-06-26T14:23:08;2.90;;;1.90;;
3004;SDS011;1512;51.486;6.610;2023-06-26T14:27:17;2.30;;;2.00;;
3004;SDS011;1512;51.486;6.610;2023-06-26T14:31:26;2.80;;;2.50;;
3004;SDS011;1512;51.486;6.610;2023-06-26T14:35:35;3.90;;;2.27;;
3004;SDS011;1512;51.486;6.610;2023-06-26T14:39:43;2.83;;;2.27;;
3004;SDS011;1512;51.486;6.610;2023-06-26T14:43:53;3.33;;;2.63;;
3004;SDS011;1512;51.486;6.610;2023-06-26T14:48:02;2.37;;;2.17;;
3004;SDS011;1512;51.486;6.610;2023-06-26T14:52:11;2.60;;;2.40;;
3004;SDS011;1512;51.486;6.610;2023-06-26T15:00:50;3.20;;;2.90;;
3004;SDS011;1512;51.486;6.610;2023-06-26T15:04:58;5.70;;;3.20;;
3004;SDS011;1512;51.486;6.610;2023-06-26T15:09:07;2.73;;;2.50;;
3004;SDS011;1512;51.486;6.610;2023-06-26T15:13:16;4.53;;;2.67;;
3004;SDS011;1512;51.486;6.610;2023-06-26T15:17:27;2.80;;;2.50;;
3004;SDS011;1512;51.486;6.610;2023-06-26T15:21:36;4.43;;;2.10;;
3004;SDS011;1512;51.486;6.610;2023-06-26T15:25:46;7.67;;;2.70;;
3004;SDS011;1512;51.486;6.610;2023-06-26T15:29:55;4.33;;;2.10;;
3004;SDS011;1512;51.486;6.610;2023-06-26T15:34:03;3.67;;;2.40;;
3004;SDS011;1512;51.486;6.610;2023-06-26T15:38:13;2.67;;;2.40;;
3004;SDS011;1512;51.486;6.610;2023-06-26T15:42:26;2.33;;;1.93;;
3004;SDS011;1512;51.486;6.610;2023-06-26T15:51:13;3.30;;;2.80;;
3004;SDS011;1512;51.486;6.610;2023-06-26T15:55:22;2.67;;;2.23;;
3004;SDS011;1512;51.486;6.610;2023-06-26T15:59:31;2.90;;;2.13;;
3004;SDS011;1512;51.486;6.610;2023-06-26T16:03:39;2.63;;;2.43;;
3004;SDS011;1512;51.486;6.610;2023-06-26T16:07:49;3.23;;;2.13;;
3004;SDS011;1512;51.486;6.610;2023-06-26T16:11:59;2.57;;;2.37;;
3004;SDS011;1512;51.486;6.610;2023-06-26T16:16:08;3.20;;;2.43;;
3004;SDS011;1512;51.486;6.610;2023-06-26T16:20:18;3.90;;;2.70;;
3004;SDS011;1512;51.486;6.610;2023-06-26T16:24:27;3.10;;;2.50;;
3004;SDS011;1512;51.486;6.610;2023-06-26T16:28:36;2.95;;;2.62;;
3004;SDS011;1512;51.486;6.610;2023-06-26T16:37:14;5.67;;;2.00;;
3004;SDS011;1512;51.486;6.610;2023-06-26T16:41:22;2.90;;;2.60;;
3004;SDS011;1512;51.486;6.610;2023-06-26T16:45:31;3.30;;;2.30;;
3004;SDS011;1512;51.486;6.610;2023-06-26T16:49:40;3.15;;;2.80;;
3004;SDS011;1512;51.486;6.610;2023-06-26T16:53:48;2.70;;;2.50;;
3004;SDS011;1512;51.486;6.610;2023-06-26T16:57:57;6.70;;;2.90;;
3004;SDS011;1512;51.486;6.610;2023-06-26T17:02:14;8.83;;;3.10;;
3004;SDS011;1512;51.486;6.610;2023-06-26T17:06:18;4.20;;;2.65;;
3004;SDS011;1512;51.486;6.610;2023-06-26T17:10:27;4.10;;;2.47;;
3004;SDS011;1512;51.486;6.610;2023-06-26T17:14:36;4.07;;;2.73;;
3004;SDS011;1512;51.486;6.610;2023-06-26T17:18:44;3.37;;;2.17;;
3004;SDS011;1512;51.486;6.610;2023-06-26T17:22:53;2.83;;;2.20;;
3004;SDS011;1512;51.486;6.610;2023-06-26T17:27:13;3.00;;;2.03;;
3004;SDS011;1512;51.486;6.610;2023-06-26T17:31:17;2.73;;;2.53;;
3004;SDS011;1512;51.486;6.610;2023-06-26T17:35:26;3.40;;;2.60;;
3004;SDS011;1512;51.486;6.610;2023-06-26T17:39:35;4.47;;;2.53;;
3004;SDS011;1512;51.486;6.610;2023-06-26T17:48:04;2.60;;;2.40;;
3004;SDS011;1512;51.486;6.610;2023-06-26T17:52:13;3.12;;;2.77;;
3004;SDS011;1512;51.486;6.610;2023-06-26T17:56:22;5.47;;;2.33;;
3004;SDS011;1512;51.486;6.610;2023-06-26T18:00:30;2.73;;;2.20;;
3004;SDS011;1512;51.486;6.610;2023-06-26T18:04:39;2.37;;;2.17;;
3004;SDS011;1512;51.486;6.610;2023-06-26T18:08:47;3.53;;;2.30;;
3004;SDS011;1512;51.486;6.610;2023-06-26T18:12:56;2.57;;;2.37;;
3004;SDS011;1512;51.486;6.610;2023-06-26T18:21:33;4.50;;;3.10;;
3004;SDS011;1512;51.486;6.610;2023-06-26T18:25:42;6.13;;;2.53;;
3004;SDS011;1512;51.486;6.610;2023-06-26T18:29:50;2.90;;;2.50;;
3004;SDS011;1512;51.486;6.610;2023-06-26T18:33:59;2.60;;;2.40;;
3004;SDS011;1512;51.486;6.610;2023-06-26T18:38:08;3.47;;;2.10;;
3004;SDS011;1512;51.486;6.610;2023-06-26T18:42:20;2.70;;;2.30;;
3004;SDS011;1512;51.486;6.610;2023-06-26T18:46:28;2.77;;;2.50;;
3004;SDS011;1512;51.486;6.610;2023-06-26T18:50:37;3.77;;;2.40;;
3004;SDS011;1512;51.486;6.610;2023-06-26T18:54:46;2.77;;;2.43;;
3004;SDS011;1512;51.486;6.610;2023-06-26T18:58:54;4.00;;;2.63;;
3004;SDS011;1512;51.486;6.610;2023-06-26T19:03:03;2.40;;;2.00;;
3004;SDS011;1512;51.486;6.610;2023-06-26T19:07:12;6.23;;;2.70;;
3004;SDS011;1512;51.486;6.610;2023-06-26T19:11:21;7.00;;;2.60;;
3004;SDS011;1512;51.486;6.610;2023-06-26T19:15:29;3.23;;;2.20;;
3004;SDS011;1512;51.486;6.610;2023-06-26T19:19:38;2.67;;;1.90;;
3004;SDS011;1512;51.486;6.610;2023-06-26T19:28:15;4.33;;;2.40;;
3004;SDS011;1512;51.486;6.610;2023-06-26T19:36:45;3.40;;;2.57;;
3004;SDS011;1512;51.486;6.610;2023-06-26T19:40:54;4.03;;;2.50;;
3004;SDS011;1512;51.486;6.610;2023-06-26T19:45:02;2.30;;;2.10;;
3004;SDS011;1512;51.486;6.610;2023-06-26T19:49:11;2.40;;;2.20;;
3004;SDS011;1512;51.486;6.610;2023-06-26T19:53:20;3.73;;;2.40;;
3004;SDS011;1512;51.486;6.610;2023-06-26T19:57:29;2.30;;;2.10;;
3004;SDS011;1512;51.486;6.610;2023-06-26T20:01:38;2.70;;;2.30;;
3004;SDS011;1512;51.486;6.610;2023-06-26T20:05:46;2.63;;;2.43;;
3004;SDS011;1512;51.486;6.610;2023-06-26T20:09:56;2.67;;;2.47;;
3004;SDS011;1512;51.486;6.610;2023-06-26T20:14:07;3.10;;;2.10;;
3004;SDS011;1512;51.486;6.610;2023-06-26T20:18:16;3.10;;;2.80;;
3004;SDS011;1512;51.486;6.610;2023-06-26T20:22:25;3.50;;;2.10;;
3004;SDS011;1512;51.486;6.610;2023-06-26T20:26:34;6.30;;;2.83;;
3004;SDS011;1512;51.486;6.610;2023-06-26T20:30:43;2.83;;;2.47;;
3004;SDS011;1512;51.486;6.610;2023-06-26T20:34:52;2.67;;;2.47;;
3004;SDS011;1512;51.486;6.610;2023-06-26T20:39:01;3.20;;;2.40;;
3004;SDS011;1512;51.486;6.610;2023-06-26T20:43:09;2.77;;;2.30;;
3004;SDS011;1512;51.486;6.610;2023-06-26T20:47:18;3.00;;;2.37;;
3004;SDS011;1512;51.486;6.610;2023-06-26T20:51:27;3.77;;;3.10;;
3004;SDS011;1512;51.486;6.610;2023-06-26T20:55:37;2.87;;;2.40;;
3004;SDS011;1512;51.486;6.610;2023-06-26T20:59:46;2.43;;;2.20;;
3004;SDS011;1512;51.486;6.610;2023-06-26T21:03:55;3.67;;;2.13;;
3004;SDS011;1512;51.486;6.610;2023-06-26T21:08:03;3.47;;;2.60;;
3004;SDS011;1512;51.486;6.610;2023-06-26T21:12:12;2.37;;;2.17;;
3004;SDS011;1512;51.486;6.610;2023-06-26T21:16:21;3.03;;;2.73;;
3004;SDS011;1512;51.486;6.610;2023-06-26T21:20:29;3.20;;;2.33;;
3004;SDS011;1512;51.486;6.610;2023-06-26T21:24:39;2.47;;;2.27;;
3004;SDS011;1512;51.486;6.610;2023-06-26T21:28:47;3.63;;;2.80;;
3004;SDS011;1512;51.486;6.610;2023-06-26T21:32:56;3.40;;;2.60;;
3004;SDS011;1512;51.486;6.610;2023-06-26T21:37:05;2.93;;;2.70;;
3004;SDS011;1512;51.486;6.610;2023-06-26T21:41:13;3.10;;;2.60;;
3004;SDS011;1512;51.486;6.610;2023-06-26T21:45:22;4.93;;;3.23;;
3004;SDS011;1512;51.486;6.610;2023-06-26T21:49:31;3.93;;;2.40;;
3004;SDS011;1512;51.486;6.610;2023-06-26T21:53:39;3.00;;;2.17;;
3004;SDS011;1512;51.486;6.610;2023-06-26T21:57:48;3.03;;;2.73;;
3004;SDS011;1512;51.486;6.610;2023-06-26T22:01:57;7.40;;;3.27;;
3004;SDS011;1512;51.486;6.610;2023-06-26T22:06:05;2.93;;;2.70;;
3004;SDS011;1512;51.486;6.610;2023-06-26T22:10:14;6.90;;;3.27;;
3004;SDS011;1512;51.486;6.610;2023-06-26T22:14:23;3.27;;;2.80;;
3004;SDS011;1512;51.486;6.610;2023-06-26T22:18:31;5.50;;;3.27;;
3004;SDS011;1512;51.486;6.610;2023-06-26T22:22:40;3.43;;;3.13;;
3004;SDS011;1512;51.486;6.610;2023-06-26T22:26:49;3.10;;;2.77;;
3004;SDS011;1512;51.486;6.610;2023-06-26T22:30:57;2.67;;;2.47;;
3004;SDS011;1512;51.486;6.610;2023-06-26T22:35:06;3.50;;;3.17;;
3004;SDS011;1512;51.486;6.610;2023-06-26T22:39:15;3.33;;;3.03;;
3004;SDS011;1512;51.486;6.610;2023-06-26T22:43:24;4.83;;;2.80;;
3004;SDS011;1512;51.486;6.610;2023-06-26T22:47:33;3.70;;;2.77;;
3004;SDS011;1512;51.486;6.610;2023-06-26T22:51:43;3.70;;;3.00;;
3004;SDS011;1512;51.486;6.610;2023-06-26T22:55:53;4.90;;;3.27;;
3004;SDS011;1512;51.486;6.610;2023-06-26T23:00:02;3.60;;;3.03;;
3004;SDS011;1512;51.486;6.610;2023-06-26T23:04:13;3.50;;;3.10;;
3004;SDS011;1512;51.486;6.610;2023-06-26T23:08:23;3.43;;;2.77;;
3004;SDS011;1512;51.486;6.610;2023-06-26T23:12:32;4.40;;;3.67;;
3004;SDS011;1512;51.486;6.610;2023-06-26T23:16:41;3.83;;;2.90;;
3004;SDS011;1512;51.486;6.610;2023-06-26T23:20:50;4.10;;;2.80;;
3004;SDS011;1512;51.486;6.610;2023-06-26T23:24:58;5.10;;;3.67;;
3004;SDS011;1512;51.486;6.610;2023-06-26T23:29:08;3.63;;;2.93;;
3004;SDS011;1512;51.486;6.610;2023-06-26T23:33:17;3.20;;;2.90;;
3004;SDS011;1512;51.486;6.610;2023-06-26T23:37:27;4.60;;;3.50;;
3004;SDS011;1512;51.486;6.610;2023-06-26T23:41:36;3.87;;;2.90;;
3004;SDS011;1512;51.486;6.610;2023-06-26T23:45:46;3.23;;;2.53;;
3004;SDS011;1512;51.486;6.610;2023-06-26T23:49:55;3.63;;;2.80;;
3004;SDS011;1512;51.486;6.610;2023-06-26T23:54:04;7.10;;;3.17;;
3004;SDS011;1512;51.486;6.610;2023-06-26T23:58:12;4.37;;;3.10;;
